BCS0402 EPKT-EDDP
Flight info
| Callsign | BCS0402 |
|---|---|
| Flight time | N/A |
| Altitude | 30000 |
| Route | EPKT/26 N0410F300 ADAD1M ADADO DCT UTEVO DCT HAFAF DCT BEFRE DCT IVQOQ T951 YAWOY YAWO1R EDDP/08L |
| Aircraft | B738/M-SDE2E3FGHIRWXY/LB1 |
Departure
| Time | 2026-04-30 19:23 |
|---|---|
| Airport | Katowice Wojciech Korfanty International Airport (EPKT) |
Arrival
| Time | N/A |
|---|---|
| Airport | Leipzig/Halle Airport (EDDP) |
| Time | Latitude | Longitude | Altitude | Speed | Heading |
|---|---|---|---|---|---|
| 2026-04-30 18:45 | 50.47159 | 19.08627 | 989 ft | 0 kts | 184° |
| 2026-04-30 19:13 | 50.47180 | 19.08629 | 984 ft | 2 kts | 184° |
| 2026-04-30 19:13 | 50.47213 | 19.08633 | 984 ft | 2 kts | 150° |
| 2026-04-30 19:13 | 50.47225 | 19.08616 | 984 ft | 2 kts | 123° |
| 2026-04-30 19:14 | 50.47232 | 19.08593 | 984 ft | 2 kts | 103° |
| 2026-04-30 19:14 | 50.47235 | 19.08568 | 983 ft | 2 kts | 99° |
| 2026-04-30 19:14 | 50.47236 | 19.08563 | 983 ft | 0 kts | 99° |
| 2026-04-30 19:17 | 50.47235 | 19.08578 | 983 ft | 2 kts | 95° |
| 2026-04-30 19:17 | 50.47233 | 19.08621 | 985 ft | 6 kts | 92° |
| 2026-04-30 19:18 | 50.47233 | 19.08781 | 988 ft | 12 kts | 91° |
| 2026-04-30 19:18 | 50.47233 | 19.08993 | 987 ft | 17 kts | 90° |
| 2026-04-30 19:18 | 50.47232 | 19.09195 | 988 ft | 20 kts | 90° |
| 2026-04-30 19:19 | 50.47232 | 19.09409 | 990 ft | 17 kts | 90° |
| 2026-04-30 19:19 | 50.47231 | 19.09606 | 994 ft | 19 kts | 90° |
| 2026-04-30 19:19 | 50.47234 | 19.10007 | 997 ft | 16 kts | 80° |
| 2026-04-30 19:20 | 50.47299 | 19.10153 | 998 ft | 18 kts | 47° |
| 2026-04-30 19:20 | 50.47356 | 19.10259 | 999 ft | 1 kts | 52° |
| 2026-04-30 19:20 | 50.47391 | 19.10330 | 999 ft | 7 kts | 52° |
| 2026-04-30 19:21 | 50.47432 | 19.10405 | 1000 ft | 10 kts | 44° |
| 2026-04-30 19:21 | 50.47576 | 19.10354 | 999 ft | 16 kts | 280° |
| 2026-04-30 19:22 | 50.47595 | 19.09915 | 996 ft | 27 kts | 268° |
| 2026-04-30 19:22 | 50.47616 | 19.07195 | 994 ft | 184 kts | 272° |
| 2026-04-30 19:23 | 50.47896 | 18.99791 | 3246 ft | 237 kts | 282° |
| 2026-04-30 19:24 | 50.47992 | 18.94600 | 4861 ft | 246 kts | 270° |
| 2026-04-30 19:24 | 50.47907 | 18.91874 | 5603 ft | 257 kts | 269° |
| 2026-04-30 19:24 | 50.47656 | 18.85992 | 5994 ft | 275 kts | 270° |
| 2026-04-30 19:25 | 50.46299 | 18.77424 | 7099 ft | 273 kts | 250° |
| 2026-04-30 19:26 | 50.44822 | 18.71757 | 8640 ft | 287 kts | 251° |
| 2026-04-30 19:26 | 50.43320 | 18.65801 | 10250 ft | 299 kts | 251° |
| 2026-04-30 19:26 | 50.42549 | 18.62679 | 10780 ft | 314 kts | 252° |
| 2026-04-30 19:27 | 50.40934 | 18.56060 | 11818 ft | 340 kts | 252° |
| 2026-04-30 19:27 | 50.39190 | 18.48874 | 12885 ft | 365 kts | 252° |
| 2026-04-30 19:28 | 50.38274 | 18.45101 | 13415 ft | 376 kts | 252° |
| 2026-04-30 19:28 | 50.36365 | 18.37246 | 14488 ft | 396 kts | 252° |
| 2026-04-30 19:29 | 50.34357 | 18.29013 | 15489 ft | 413 kts | 252° |
| 2026-04-30 19:29 | 50.33321 | 18.24778 | 15993 ft | 420 kts | 252° |
| 2026-04-30 19:30 | 50.30106 | 18.11687 | 17575 ft | 439 kts | 252° |
| 2026-04-30 19:30 | 50.27883 | 18.02679 | 18698 ft | 447 kts | 252° |
| 2026-04-30 19:31 | 50.25632 | 17.93594 | 19905 ft | 449 kts | 252° |
| 2026-04-30 19:31 | 50.24501 | 17.89041 | 20513 ft | 450 kts | 252° |
| 2026-04-30 19:31 | 50.22613 | 17.81459 | 21573 ft | 451 kts | 252° |
| 2026-04-30 19:32 | 50.21171 | 17.75377 | 22399 ft | 448 kts | 260° |
| 2026-04-30 19:32 | 50.20817 | 17.70636 | 23052 ft | 435 kts | 277° |
| 2026-04-30 19:32 | 50.20887 | 17.65938 | 23785 ft | 432 kts | 279° |
| 2026-04-30 19:32 | 50.20958 | 17.61247 | 24394 ft | 432 kts | 278° |
| 2026-04-30 19:33 | 50.20992 | 17.56557 | 24974 ft | 432 kts | 278° |
| 2026-04-30 19:33 | 50.21000 | 17.53389 | 25394 ft | 431 kts | 278° |
| 2026-04-30 19:33 | 50.20998 | 17.48717 | 25966 ft | 430 kts | 278° |
| 2026-04-30 19:33 | 50.20982 | 17.44115 | 26589 ft | 429 kts | 278° |
| 2026-04-30 19:34 | 50.20954 | 17.39467 | 27215 ft | 427 kts | 278° |
| 2026-04-30 19:34 | 50.20917 | 17.34839 | 27856 ft | 425 kts | 278° |
| 2026-04-30 19:34 | 50.20965 | 17.25732 | 29167 ft | 414 kts | 282° |
| 2026-04-30 19:35 | 50.21085 | 17.21269 | 29851 ft | 409 kts | 283° |
| 2026-04-30 19:35 | 50.21206 | 17.16857 | 30459 ft | 407 kts | 283° |
| 2026-04-30 19:35 | 50.21332 | 17.12353 | 30384 ft | 424 kts | 282° |
| 2026-04-30 19:35 | 50.21450 | 17.07694 | 30434 ft | 437 kts | 282° |
| 2026-04-30 19:36 | 50.21556 | 17.02872 | 30422 ft | 451 kts | 281° |
| 2026-04-30 19:36 | 50.21647 | 16.97920 | 30424 ft | 463 kts | 281° |
| 2026-04-30 19:36 | 50.21817 | 16.87610 | 30433 ft | 485 kts | 280° |
| 2026-04-30 19:37 | 50.21898 | 16.82282 | 30419 ft | 496 kts | 279° |
| 2026-04-30 19:37 | 50.21978 | 16.76846 | 30429 ft | 505 kts | 279° |
| 2026-04-30 19:37 | 50.22134 | 16.65699 | 30426 ft | 521 kts | 279° |
| 2026-04-30 19:38 | 50.22283 | 16.54283 | 30399 ft | 527 kts | 278° |
| 2026-04-30 19:38 | 50.22421 | 16.42856 | 30404 ft | 525 kts | 278° |
| 2026-04-30 19:39 | 50.22556 | 16.31474 | 30406 ft | 524 kts | 278° |
| 2026-04-30 19:39 | 50.23541 | 16.20490 | 30445 ft | 495 kts | 301° |
| 2026-04-30 19:40 | 50.25102 | 16.15834 | 30413 ft | 474 kts | 315° |
| 2026-04-30 19:40 | 50.27063 | 16.11753 | 30392 ft | 470 kts | 318° |
| 2026-04-30 19:40 | 50.31066 | 16.03674 | 30393 ft | 470 kts | 317° |
| 2026-04-30 19:41 | 50.35039 | 15.95550 | 30400 ft | 470 kts | 317° |
| 2026-04-30 19:41 | 50.38979 | 15.87352 | 30405 ft | 471 kts | 316° |
| 2026-04-30 19:42 | 50.42901 | 15.79123 | 30405 ft | 472 kts | 316° |
| 2026-04-30 19:42 | 50.46796 | 15.70920 | 30409 ft | 471 kts | 316° |
| 2026-04-30 19:43 | 50.50704 | 15.62669 | 30406 ft | 471 kts | 316° |
| 2026-04-30 19:44 | 50.56559 | 15.50268 | 30412 ft | 471 kts | 316° |
| 2026-04-30 19:44 | 50.60453 | 15.41985 | 30412 ft | 470 kts | 316° |
| 2026-04-30 19:45 | 50.64337 | 15.33699 | 30414 ft | 470 kts | 316° |
| 2026-04-30 19:45 | 50.68211 | 15.25406 | 30413 ft | 469 kts | 315° |
| 2026-04-30 19:46 | 50.72016 | 15.17008 | 30384 ft | 479 kts | 308° |
| 2026-04-30 19:46 | 50.73358 | 15.12134 | 30459 ft | 490 kts | 297° |
| 2026-04-30 19:46 | 50.74349 | 15.06944 | 30428 ft | 496 kts | 293° |
| 2026-04-30 19:47 | 50.76110 | 14.96404 | 30426 ft | 494 kts | 294° |
| 2026-04-30 19:47 | 50.78202 | 14.86109 | 30409 ft | 491 kts | 296° |
| 2026-04-30 19:48 | 50.80356 | 14.75861 | 30416 ft | 490 kts | 296° |
| 2026-04-30 19:48 | 50.82446 | 14.65614 | 30421 ft | 490 kts | 295° |
| 2026-04-30 19:49 | 50.84490 | 14.55349 | 30413 ft | 489 kts | 295° |
| 2026-04-30 19:49 | 50.86803 | 14.43611 | 30410 ft | 489 kts | 295° |
| 2026-04-30 19:50 | 50.88465 | 14.35141 | 30415 ft | 489 kts | 295° |
| 2026-04-30 19:50 | 50.90463 | 14.24900 | 30361 ft | 478 kts | 294° |
| 2026-04-30 19:51 | 50.91390 | 14.20097 | 30099 ft | 466 kts | 294° |
| 2026-04-30 19:51 | 50.92323 | 14.15264 | 29490 ft | 461 kts | 294° |
| 2026-04-30 19:51 | 50.93264 | 14.10416 | 28597 ft | 462 kts | 294° |
| 2026-04-30 19:51 | 50.94216 | 14.05525 | 27648 ft | 465 kts | 294° |
| 2026-04-30 19:52 | 50.95170 | 14.00609 | 26701 ft | 469 kts | 294° |
| 2026-04-30 19:52 | 50.96131 | 13.95636 | 25754 ft | 471 kts | 293° |
| 2026-04-30 19:52 | 50.97081 | 13.90682 | 25109 ft | 467 kts | 293° |
| 2026-04-30 19:52 | 50.98014 | 13.85784 | 24593 ft | 460 kts | 293° |
| 2026-04-30 19:53 | 50.98933 | 13.80942 | 24019 ft | 455 kts | 292° |
| 2026-04-30 19:53 | 50.99843 | 13.76151 | 23273 ft | 452 kts | 292° |
| 2026-04-30 19:53 | 51.00750 | 13.71371 | 22591 ft | 449 kts | 292° |
| 2026-04-30 19:53 | 51.01643 | 13.66649 | 21945 ft | 445 kts | 292° |
| 2026-04-30 19:54 | 51.02526 | 13.61975 | 21300 ft | 441 kts | 292° |
| 2026-04-30 19:54 | 51.03391 | 13.57387 | 20654 ft | 437 kts | 292° |
| 2026-04-30 19:54 | 51.04259 | 13.52770 | 20018 ft | 434 kts | 292° |
| 2026-04-30 19:54 | 51.05130 | 13.48125 | 19404 ft | 431 kts | 291° |
| 2026-04-30 19:55 | 51.05970 | 13.43633 | 18823 ft | 428 kts | 291° |
| 2026-04-30 19:55 | 51.06815 | 13.39103 | 18171 ft | 425 kts | 291° |
| 2026-04-30 19:55 | 51.07649 | 13.34625 | 17629 ft | 420 kts | 291° |
| 2026-04-30 19:55 | 51.08477 | 13.30167 | 17488 ft | 421 kts | 291° |
| 2026-04-30 19:56 | 51.09305 | 13.25702 | 17445 ft | 420 kts | 291° |
| 2026-04-30 19:56 | 51.10126 | 13.21261 | 17434 ft | 418 kts | 291° |
| 2026-04-30 19:56 | 51.10946 | 13.16812 | 17426 ft | 420 kts | 291° |
| 2026-04-30 19:56 | 51.11767 | 13.12350 | 17425 ft | 420 kts | 291° |
| 2026-04-30 19:57 | 51.12585 | 13.07892 | 17431 ft | 420 kts | 291° |
| 2026-04-30 19:57 | 51.13363 | 13.03629 | 17418 ft | 411 kts | 291° |
| 2026-04-30 19:57 | 51.14142 | 12.99340 | 17399 ft | 396 kts | 291° |
| 2026-04-30 19:57 | 51.14902 | 12.95161 | 17140 ft | 388 kts | 291° |
| 2026-04-30 19:58 | 51.15651 | 12.91053 | 16693 ft | 385 kts | 291° |
| 2026-04-30 19:58 | 51.16392 | 12.86977 | 16179 ft | 383 kts | 290° |
| 2026-04-30 19:58 | 51.17130 | 12.82913 | 15723 ft | 379 kts | 291° |
| 2026-04-30 19:58 | 51.17976 | 12.79071 | 15306 ft | 373 kts | 296° |
| 2026-04-30 19:59 | 51.18918 | 12.75501 | 14928 ft | 368 kts | 298° |
| 2026-04-30 19:59 | 51.19944 | 12.71782 | 14501 ft | 365 kts | 298° |
| 2026-04-30 19:59 | 51.21945 | 12.64406 | 13554 ft | 360 kts | 297° |
| 2026-04-30 20:00 | 51.22916 | 12.60734 | 13048 ft | 359 kts | 296° |
| 2026-04-30 20:00 | 51.23867 | 12.57092 | 12827 ft | 349 kts | 296° |
| 2026-04-30 20:00 | 51.24786 | 12.53553 | 12537 ft | 343 kts | 296° |
| 2026-04-30 20:00 | 51.25603 | 12.50001 | 12424 ft | 341 kts | 286° |
| 2026-04-30 20:01 | 51.25513 | 12.42252 | 12421 ft | 356 kts | 267° |
| 2026-04-30 20:01 | 51.25306 | 12.38313 | 12428 ft | 356 kts | 268° |
| 2026-04-30 20:01 | 51.25109 | 12.34431 | 12426 ft | 356 kts | 268° |
| 2026-04-30 20:02 | 51.24778 | 12.26623 | 12398 ft | 339 kts | 274° |
| 2026-04-30 20:02 | 51.25160 | 12.23058 | 12452 ft | 317 kts | 289° |
| 2026-04-30 20:03 | 51.26299 | 12.16372 | 11980 ft | 308 kts | 289° |
| 2026-04-30 20:03 | 51.26851 | 12.13065 | 11417 ft | 308 kts | 288° |
| 2026-04-30 20:03 | 51.27389 | 12.09754 | 10854 ft | 309 kts | 288° |
| 2026-04-30 20:03 | 51.27919 | 12.06440 | 10372 ft | 307 kts | 287° |
| 2026-04-30 20:04 | 51.28439 | 12.03148 | 9863 ft | 305 kts | 285° |
| 2026-04-30 20:04 | 51.28563 | 11.99774 | 9321 ft | 306 kts | 266° |
| 2026-04-30 20:04 | 51.28357 | 11.96431 | 8898 ft | 301 kts | 265° |
| 2026-04-30 20:05 | 51.28047 | 11.90911 | 8096 ft | 297 kts | 265° |
| 2026-04-30 20:05 | 51.27880 | 11.87705 | 7642 ft | 294 kts | 265° |
| 2026-04-30 20:05 | 51.27558 | 11.81336 | 6774 ft | 288 kts | 265° |
| 2026-04-30 20:06 | 51.27398 | 11.78159 | 6277 ft | 286 kts | 265° |
| 2026-04-30 20:06 | 51.27237 | 11.74995 | 5773 ft | 285 kts | 264° |
| 2026-04-30 20:06 | 51.27070 | 11.71841 | 5281 ft | 284 kts | 261° |
| 2026-04-30 20:06 | 51.26486 | 11.68864 | 4772 ft | 280 kts | 248° |
| 2026-04-30 20:07 | 51.26258 | 11.65819 | 4286 ft | 279 kts | 283° |
| 2026-04-30 20:07 | 51.27141 | 11.63138 | 4153 ft | 276 kts | 318° |
| 2026-04-30 20:07 | 51.30546 | 11.61893 | 4001 ft | 254 kts | 26° |
| 2026-04-30 20:08 | 51.31875 | 11.63535 | 4026 ft | 235 kts | 51° |
| 2026-04-30 20:08 | 51.32884 | 11.65502 | 4001 ft | 223 kts | 54° |
| 2026-04-30 20:08 | 51.33821 | 11.67416 | 3989 ft | 215 kts | 54° |
| 2026-04-30 20:08 | 51.34729 | 11.69284 | 4002 ft | 216 kts | 54° |
| 2026-04-30 20:09 | 51.35665 | 11.71221 | 4010 ft | 219 kts | 54° |
| 2026-04-30 20:09 | 51.36598 | 11.73164 | 4009 ft | 221 kts | 54° |
| 2026-04-30 20:09 | 51.38479 | 11.77089 | 4001 ft | 223 kts | 54° |
| 2026-04-30 20:10 | 51.40358 | 11.81020 | 3996 ft | 221 kts | 54° |
| 2026-04-30 20:10 | 51.41289 | 11.82971 | 3998 ft | 220 kts | 54° |
| 2026-04-30 20:10 | 51.42086 | 11.85038 | 3971 ft | 218 kts | 72° |